createdAt,value
2019-02-25T00:01:37.316Z,43.60
2019-02-25T00:04:06.896Z,47.98
2019-02-25T00:06:36.438Z,46.35
2019-02-25T00:09:05.988Z,49.10
2019-02-25T00:11:37.238Z,48.00
2019-02-25T00:14:06.801Z,47.33
2019-02-25T00:16:36.401Z,42.95
2019-02-25T00:19:05.946Z,48.25
2019-02-25T00:21:35.505Z,48.60
2019-02-25T00:24:05.037Z,44.65
2019-02-25T00:26:34.578Z,47.73
2019-02-25T00:29:04.178Z,50.65
2019-02-25T00:31:33.734Z,50.55
2019-02-25T00:34:03.290Z,48.45
2019-02-25T00:36:32.833Z,52.13
2019-02-25T00:39:02.378Z,51.37
2019-02-25T00:41:33.506Z,47.95
2019-02-25T00:44:03.048Z,51.67
2019-02-25T00:46:33.784Z,51.98
2019-02-25T00:49:03.329Z,46.70
2019-02-25T00:51:32.926Z,48.38
2019-02-25T00:54:03.514Z,50.20
2019-02-25T00:56:33.263Z,48.75
2019-02-25T00:59:02.843Z,48.55
2019-02-25T01:01:32.392Z,45.10
2019-02-25T01:04:01.950Z,45.95
2019-02-25T01:06:31.494Z,48.70
2019-02-25T01:09:01.096Z,46.30
2019-02-25T01:11:32.193Z,47.27
2019-02-25T01:14:01.786Z,47.33
2019-02-25T01:16:31.330Z,50.25
2019-02-25T01:19:00.919Z,47.00
2019-02-25T01:21:30.462Z,48.02
2019-02-25T01:24:02.801Z,50.60
2019-02-25T01:26:32.338Z,46.70
2019-02-25T01:29:01.882Z,46.20
2019-02-25T01:31:31.426Z,47.80
2019-02-25T01:34:00.974Z,50.58
2019-02-25T01:36:30.557Z,47.67
2019-02-25T01:39:00.386Z,42.97
2019-02-25T01:41:31.530Z,45.60
2019-02-25T01:44:02.078Z,42.20
2019-02-25T01:46:31.663Z,43.08
2019-02-25T01:49:01.225Z,43.65
2019-02-25T01:51:30.766Z,43.58
2019-02-25T01:54:00.325Z,41.18
2019-02-25T01:56:29.872Z,42.27
2019-02-25T01:58:59.467Z,39.35
2019-02-25T02:01:29.011Z,39.08
2019-02-25T02:03:58.562Z,40.63
2019-02-25T02:06:28.122Z,38.42
2019-02-25T02:08:57.661Z,39.80
2019-02-25T02:11:27.249Z,41.37
2019-02-25T02:13:56.810Z,39.23
2019-02-25T02:16:26.367Z,38.23
2019-02-25T02:18:55.976Z,39.10
2019-02-25T02:21:25.466Z,40.00
2019-02-25T02:23:55.013Z,39.50
2019-02-25T02:26:24.598Z,37.43
2019-02-25T02:28:54.152Z,39.20
2019-02-25T02:31:23.703Z,41.15
2019-02-25T02:33:53.629Z,38.95
2019-02-25T02:36:23.194Z,43.48
2019-02-25T02:38:52.740Z,37.23
2019-02-25T02:41:22.299Z,36.40
2019-02-25T02:43:51.833Z,54.57
2019-02-25T02:46:27.486Z,36.95
2019-02-25T02:49:00.391Z,36.35
2019-02-25T02:51:30.015Z,36.42
2019-02-25T02:54:05.538Z,36.25
2019-02-25T02:56:35.122Z,33.60
2019-02-25T02:59:04.657Z,35.60
2019-02-25T03:01:34.216Z,34.43
2019-02-25T03:04:03.765Z,38.30
2019-02-25T03:06:33.318Z,31.87
2019-02-25T03:09:04.426Z,36.65
2019-02-25T03:11:35.818Z,35.38
2019-02-25T03:14:05.374Z,32.85
2019-02-25T03:16:34.928Z,33.83
2019-02-25T03:19:04.502Z,34.30
2019-02-25T03:21:34.026Z,36.35
2019-02-25T03:24:03.612Z,34.30
2019-02-25T03:26:33.153Z,37.42
2019-02-25T03:29:02.934Z,33.42
2019-02-25T03:31:32.489Z,33.78
2019-02-25T03:34:02.032Z,34.30
2019-02-25T03:36:31.586Z,33.02
2019-02-25T03:39:01.167Z,29.07
2019-02-25T03:41:32.166Z,33.23
2019-02-25T03:44:01.715Z,30.25
2019-02-25T03:46:31.723Z,32.20
2019-02-25T03:49:01.271Z,30.92
2019-02-25T03:51:30.821Z,29.63
2019-02-25T03:54:01.447Z,31.02
2019-02-25T03:56:31.008Z,29.77
2019-02-25T03:59:00.571Z,30.00
2019-02-25T04:01:30.125Z,29.40
2019-02-25T04:03:59.671Z,30.72
2019-02-25T04:06:29.231Z,32.20
2019-02-25T04:08:59.773Z,33.50
2019-02-25T04:11:29.361Z,28.52
2019-02-25T04:13:58.898Z,27.63
2019-02-25T04:16:28.454Z,27.95
2019-02-25T04:18:58.014Z,25.08
2019-02-25T04:21:27.567Z,29.70
2019-02-25T04:23:57.142Z,28.35
2019-02-25T04:26:26.694Z,30.05
2019-02-25T04:28:56.269Z,27.67
2019-02-25T04:31:25.827Z,24.45
2019-02-25T04:33:55.373Z,27.82
2019-02-25T04:36:26.389Z,26.68
2019-02-25T04:38:55.935Z,26.48
2019-02-25T04:41:25.491Z,26.77
2019-02-25T04:43:55.042Z,25.70
2019-02-25T04:46:24.593Z,25.60
2019-02-25T04:48:54.165Z,27.37
2019-02-25T04:51:23.710Z,23.77
2019-02-25T04:53:53.278Z,23.75
2019-02-25T04:56:25.257Z,25.70
2019-02-25T04:58:54.071Z,22.40
2019-02-25T05:01:23.619Z,23.20
2019-02-25T05:03:54.260Z,23.30
2019-02-25T05:06:23.809Z,18.92
2019-02-25T05:08:53.358Z,22.05
2019-02-25T05:11:25.753Z,22.50
2019-02-25T05:13:56.390Z,21.30
2019-02-25T05:16:25.942Z,23.38
2019-02-25T05:18:55.496Z,23.98
2019-02-25T05:21:25.047Z,28.60
2019-02-25T05:23:54.593Z,27.90
2019-02-25T05:26:24.316Z,23.87
2019-02-25T05:28:53.865Z,25.85
2019-02-25T05:31:23.461Z,28.40
2019-02-25T05:33:55.046Z,24.50
2019-02-25T05:36:24.635Z,25.35
2019-02-25T05:38:54.193Z,28.98
2019-02-25T05:41:23.741Z,34.53
2019-02-25T05:43:53.299Z,31.75
2019-02-25T05:46:22.841Z,32.15
2019-02-25T05:48:52.438Z,35.28
2019-02-25T05:51:21.982Z,35.23
2019-02-25T05:53:52.364Z,54.65
2019-02-25T05:56:21.894Z,32.60
2019-02-25T05:58:51.446Z,29.87
2019-02-25T06:01:21.006Z,27.75
2019-02-25T06:03:50.574Z,30.50
2019-02-25T06:06:20.125Z,26.15
2019-02-25T06:08:49.669Z,21.87
2019-02-25T06:11:20.271Z,22.77
2019-02-25T06:13:49.812Z,23.05
2019-02-25T06:16:19.369Z,21.82
2019-02-25T06:18:48.931Z,23.47
2019-02-25T06:21:18.472Z,22.73
2019-02-25T06:23:48.052Z,21.33
2019-02-25T06:26:17.597Z,24.05
2019-02-25T06:28:47.171Z,24.23
2019-02-25T06:31:16.773Z,25.02
2019-02-25T06:33:48.385Z,24.75
2019-02-25T06:36:19.064Z,24.37
2019-02-25T06:38:49.294Z,23.25
2019-02-25T06:41:19.049Z,19.17
2019-02-25T06:43:48.641Z,21.33
2019-02-25T06:46:18.234Z,20.15
2019-02-25T06:48:48.081Z,21.85
2019-02-25T06:51:17.908Z,21.42
2019-02-25T06:53:47.634Z,21.57
2019-02-25T06:56:17.194Z,27.25
2019-02-25T06:58:47.380Z,21.52
2019-02-25T07:01:16.935Z,21.02
2019-02-25T07:03:48.422Z,23.10
2019-02-25T07:06:19.542Z,20.17
2019-02-25T07:08:54.665Z,26.27
2019-02-25T07:11:33.563Z,23.65
2019-02-25T07:14:10.801Z,23.15
2019-02-25T07:16:47.747Z,22.32
2019-02-25T07:19:28.170Z,21.90
2019-02-25T07:22:09.246Z,26.37
2019-02-25T07:24:52.897Z,26.20
2019-02-25T07:27:22.185Z,26.95
2019-02-25T07:29:56.323Z,29.05
2019-02-25T07:32:27.442Z,25.43
2019-02-25T07:34:58.706Z,26.27
2019-02-25T07:37:30.933Z,25.82
2019-02-25T07:40:07.830Z,28.92
2019-02-25T07:42:42.282Z,29.37
2019-02-25T07:45:21.694Z,35.65
2019-02-25T07:47:55.515Z,30.72
2019-02-25T07:50:32.559Z,38.92
2019-02-25T07:53:03.674Z,36.38
2019-02-25T07:55:47.498Z,37.20
2019-02-25T07:58:34.827Z,33.13
2019-02-25T08:01:05.999Z,30.95
2019-02-25T08:03:39.999Z,28.57
2019-02-25T08:06:12.005Z,34.80
2019-02-25T08:08:59.651Z,33.63
2019-02-25T08:11:30.822Z,28.87
2019-02-25T08:14:20.435Z,27.27
2019-02-25T08:17:08.051Z,27.05
2019-02-25T08:19:41.871Z,27.20
2019-02-25T08:22:15.766Z,34.25
2019-02-25T08:24:55.922Z,30.62
2019-02-25T08:27:27.102Z,29.20
2019-02-25T08:30:01.265Z,26.27
2019-02-25T08:32:39.299Z,27.30
2019-02-25T08:35:22.365Z,27.33
2019-02-25T08:38:09.310Z,35.80
2019-02-25T08:40:43.567Z,28.42
2019-02-25T08:43:32.895Z,27.85
2019-02-25T08:46:15.997Z,26.20
2019-02-25T08:48:49.850Z,31.00
2019-02-25T08:51:19.406Z,27.60
2019-02-25T08:53:48.966Z,29.82
2019-02-25T08:56:18.522Z,30.50
2019-02-25T08:58:48.083Z,29.98
2019-02-25T09:01:17.666Z,29.57
2019-02-25T09:03:47.214Z,34.23
2019-02-25T09:06:16.778Z,33.28
2019-02-25T09:08:46.330Z,31.48
2019-02-25T09:11:15.889Z,32.85
2019-02-25T09:13:45.502Z,31.27
2019-02-25T09:16:15.049Z,36.50
2019-02-25T09:18:44.609Z,43.15
2019-02-25T09:21:14.167Z,35.90
2019-02-25T09:23:44.725Z,34.70
2019-02-25T09:26:14.283Z,37.15
2019-02-25T09:28:43.873Z,33.58
2019-02-25T09:31:13.443Z,36.20
2019-02-25T09:33:43.003Z,35.75
2019-02-25T09:36:12.567Z,38.00
2019-02-25T09:38:42.122Z,40.15
2019-02-25T09:41:12.822Z,39.35
2019-02-25T09:43:42.366Z,41.63
2019-02-25T09:46:11.995Z,46.03
2019-02-25T09:48:41.486Z,36.25
2019-02-25T09:51:11.438Z,42.25
2019-02-25T09:53:42.705Z,41.92
2019-02-25T09:56:13.271Z,43.17
2019-02-25T09:58:42.810Z,44.30
2019-02-25T10:01:12.751Z,45.40
2019-02-25T10:03:42.374Z,42.53
2019-02-25T10:06:12.963Z,44.50
2019-02-25T10:08:42.747Z,49.77
2019-02-25T10:11:12.302Z,47.78
2019-02-25T10:13:41.890Z,45.45
2019-02-25T10:16:11.465Z,53.17
2019-02-25T10:18:41.048Z,50.70
2019-02-25T10:21:11.606Z,49.08
2019-02-25T10:23:42.167Z,54.93
2019-02-25T10:26:11.767Z,53.13
2019-02-25T10:28:41.310Z,56.88
2019-02-25T10:31:12.735Z,58.10
2019-02-25T10:33:42.065Z,54.77
2019-02-25T10:36:11.674Z,58.50
2019-02-25T10:38:41.234Z,59.30
2019-02-25T10:41:10.834Z,53.87
2019-02-25T10:43:41.366Z,58.10
2019-02-25T10:46:13.310Z,63.08
2019-02-25T10:48:42.150Z,59.65
2019-02-25T10:51:13.565Z,57.37
2019-02-25T10:53:43.491Z,68.30
2019-02-25T10:56:23.841Z,65.03
2019-02-25T10:58:54.597Z,57.63
2019-02-25T11:01:24.594Z,59.55
2019-02-25T11:03:54.375Z,49.90
2019-02-25T11:06:25.146Z,47.38
2019-02-25T11:08:59.654Z,51.65
2019-02-25T11:11:30.792Z,53.02
2019-02-25T11:14:00.938Z,52.85
2019-02-25T11:16:31.558Z,49.18
2019-02-25T11:19:02.518Z,51.40
2019-02-25T11:21:33.011Z,50.80
2019-02-25T11:24:03.314Z,48.55
2019-02-25T11:26:34.904Z,49.45
2019-02-25T11:29:05.454Z,48.02
2019-02-25T11:31:35.252Z,49.93
2019-02-25T11:34:05.710Z,50.43
2019-02-25T11:36:36.026Z,51.55
2019-02-25T11:39:06.974Z,48.92
2019-02-25T11:41:39.372Z,50.73
2019-02-25T11:44:09.584Z,50.67
2019-02-25T11:46:39.187Z,49.20
2019-02-25T11:49:08.738Z,51.23
2019-02-25T11:51:38.294Z,50.28
2019-02-25T11:54:07.873Z,53.30
2019-02-25T11:56:37.425Z,54.33
2019-02-25T11:59:09.065Z,56.10
2019-02-25T12:01:38.634Z,46.85
2019-02-25T12:04:09.208Z,47.83
2019-02-25T12:06:38.753Z,47.27
2019-02-25T12:09:08.310Z,44.83
2019-02-25T12:11:38.162Z,46.87
2019-02-25T12:14:13.743Z,46.13
2019-02-25T12:16:43.290Z,48.10
2019-02-25T12:19:17.992Z,53.13
2019-02-25T12:21:44.083Z,52.55
2019-02-25T12:24:13.683Z,52.95
2019-02-25T12:26:43.250Z,49.83
2019-02-25T12:29:12.850Z,59.50
2019-02-25T12:31:42.715Z,52.88
2019-02-25T12:34:12.417Z,52.75
2019-02-25T12:36:41.977Z,66.60
2019-02-25T12:39:11.526Z,49.88
2019-02-25T12:41:41.147Z,49.40
2019-02-25T12:44:10.701Z,55.20
2019-02-25T12:46:40.251Z,48.30
2019-02-25T12:49:09.814Z,53.87
2019-02-25T12:51:39.390Z,49.95
2019-02-25T12:54:08.942Z,48.48
2019-02-25T12:56:38.565Z,57.85
2019-02-25T12:59:08.246Z,59.45
2019-02-25T13:01:37.866Z,60.03
2019-02-25T13:04:07.477Z,45.20
2019-02-25T13:06:37.095Z,41.60
2019-02-25T13:09:09.109Z,46.30
2019-02-25T13:11:39.950Z,40.15
2019-02-25T13:14:09.620Z,40.78
2019-02-25T13:16:39.245Z,45.30
2019-02-25T13:19:08.908Z,45.12
2019-02-25T13:21:38.518Z,47.13
2019-02-25T13:24:09.853Z,44.87
2019-02-25T13:26:40.569Z,45.63
2019-02-25T13:29:10.174Z,50.28
2019-02-25T13:31:39.786Z,48.45
2019-02-25T13:34:09.340Z,44.45
2019-02-25T13:36:38.936Z,49.60
2019-02-25T13:39:08.707Z,59.08
2019-02-25T13:41:39.396Z,55.45
2019-02-25T13:44:08.958Z,69.63
2019-02-25T13:46:38.520Z,55.85
2019-02-25T13:49:08.084Z,58.25
2019-02-25T13:51:37.650Z,59.30
2019-02-25T13:54:07.276Z,49.93
2019-02-25T13:56:36.852Z,69.67
2019-02-25T13:59:06.437Z,69.77
2019-02-25T14:01:36.000Z,71.70
2019-02-25T14:04:06.588Z,55.55
2019-02-25T14:06:36.161Z,40.05
2019-02-25T14:09:07.582Z,42.05
2019-02-25T14:11:38.707Z,134.75
2019-02-25T14:14:08.307Z,156.83
2019-02-25T14:16:37.876Z,63.92
2019-02-25T14:19:07.736Z,71.05
2019-02-25T14:21:37.295Z,65.45
2019-02-25T14:24:06.860Z,60.58
2019-02-25T14:26:37.445Z,46.75
2019-02-25T14:29:07.552Z,45.88
2019-02-25T14:31:37.149Z,44.80
2019-02-25T14:34:06.717Z,44.25
2019-02-25T14:36:36.284Z,60.75
2019-02-25T14:39:08.976Z,48.40
2019-02-25T14:41:40.132Z,45.95
2019-02-25T14:44:09.700Z,44.37
2019-02-25T14:46:39.260Z,45.10
2019-02-25T14:49:08.844Z,42.33
2019-02-25T14:51:38.406Z,40.98
2019-02-25T14:54:08.005Z,42.20
2019-02-25T14:56:37.665Z,48.33
2019-02-25T14:59:08.227Z,48.45
2019-02-25T15:01:39.664Z,52.70
2019-02-25T15:04:09.269Z,51.53
2019-02-25T15:06:38.832Z,44.40
2019-02-25T15:09:11.918Z,43.95
2019-02-25T15:11:40.004Z,51.13
2019-02-25T15:14:10.662Z,48.57
2019-02-25T15:16:40.792Z,47.62
2019-02-25T15:19:10.358Z,66.45
2019-02-25T15:21:42.895Z,86.53
2019-02-25T15:24:12.634Z,93.75
2019-02-25T15:26:43.361Z,101.05
2019-02-25T15:29:13.075Z,70.73
2019-02-25T15:31:44.411Z,90.95
2019-02-25T15:34:15.021Z,60.17
2019-02-25T15:36:45.262Z,80.92
2019-02-25T15:39:14.816Z,58.63
2019-02-25T15:41:46.288Z,66.70
2019-02-25T15:44:15.592Z,61.98
2019-02-25T15:46:45.169Z,57.45
2019-02-25T15:49:16.922Z,76.95
2019-02-25T15:51:45.996Z,54.38
2019-02-25T15:54:15.594Z,61.63
2019-02-25T15:56:45.155Z,43.50
2019-02-25T15:59:14.731Z,39.65
2019-02-25T16:01:45.496Z,40.92
2019-02-25T16:04:15.065Z,43.00
2019-02-25T16:06:44.676Z,38.40
2019-02-25T16:09:17.279Z,40.12
2019-02-25T16:11:47.495Z,35.00
2019-02-25T16:14:19.083Z,38.38
2019-02-25T16:16:48.962Z,35.90
2019-02-25T16:19:18.505Z,43.20
2019-02-25T16:21:48.074Z,45.40
2019-02-25T16:24:18.613Z,46.58
2019-02-25T16:26:48.816Z,42.60
2019-02-25T16:29:18.543Z,54.25
2019-02-25T16:31:49.012Z,39.60
2019-02-25T16:34:20.641Z,39.20
2019-02-25T16:36:51.985Z,36.90
2019-02-25T16:39:21.647Z,35.88
2019-02-25T16:41:51.218Z,38.73
2019-02-25T16:44:20.836Z,41.15
2019-02-25T16:46:50.828Z,44.15
2019-02-25T16:49:21.602Z,44.88
2019-02-25T16:51:53.053Z,68.10
2019-02-25T16:54:22.916Z,86.67
2019-02-25T16:56:53.666Z,87.97
2019-02-25T16:59:24.988Z,69.15
2019-02-25T17:01:57.783Z,64.50
2019-02-25T17:04:27.742Z,83.75
2019-02-25T17:06:58.355Z,120.17
2019-02-25T17:09:31.786Z,145.10
2019-02-25T17:12:02.850Z,105.95
2019-02-25T17:14:32.619Z,114.00
2019-02-25T17:17:02.480Z,119.08
2019-02-25T17:19:32.082Z,108.05
2019-02-25T17:22:05.158Z,123.60
2019-02-25T17:24:34.843Z,112.92
2019-02-25T17:27:06.970Z,82.27
2019-02-25T17:29:37.572Z,78.70
2019-02-25T17:32:08.020Z,75.57
2019-02-25T17:34:39.334Z,75.87
2019-02-25T17:37:10.409Z,67.50
2019-02-25T17:39:39.980Z,72.62
2019-02-25T17:42:10.721Z,84.17
2019-02-25T17:44:40.706Z,94.15
2019-02-25T17:47:11.033Z,92.95
2019-02-25T17:49:42.872Z,81.85
2019-02-25T17:52:14.152Z,78.92
2019-02-25T17:54:43.962Z,85.35
2019-02-25T17:57:15.401Z,67.32
2019-02-25T17:59:46.368Z,72.35
2019-02-25T18:02:15.971Z,163.05
2019-02-25T18:04:47.064Z,164.90
2019-02-25T18:07:16.737Z,161.40
2019-02-25T18:09:46.536Z,144.97
2019-02-25T18:12:16.216Z,142.37
2019-02-25T18:14:47.376Z,193.90
2019-02-25T18:17:17.538Z,180.40
2019-02-25T18:19:50.163Z,186.77
2019-02-25T18:22:19.369Z,163.18
2019-02-25T18:24:49.322Z,147.68
2019-02-25T18:27:19.289Z,131.97
2019-02-25T18:29:50.341Z,120.33
2019-02-25T18:32:20.698Z,96.65
2019-02-25T18:34:51.773Z,82.30
2019-02-25T18:37:21.475Z,79.85
2019-02-25T18:39:52.233Z,90.45
2019-02-25T18:42:22.262Z,85.83
2019-02-25T18:44:53.528Z,78.37
2019-02-25T18:47:30.374Z,63.30
2019-02-25T18:50:00.963Z,59.13
2019-02-25T18:52:34.124Z,59.35
2019-02-25T18:55:08.835Z,64.27
2019-02-25T18:57:38.170Z,61.98
2019-02-25T19:00:15.162Z,49.77
2019-02-25T19:02:46.256Z,50.33
2019-02-25T19:05:15.798Z,53.70
2019-02-25T19:07:47.144Z,61.80
2019-02-25T19:10:18.759Z,60.83
2019-02-25T19:12:49.629Z,59.25
2019-02-25T19:15:20.530Z,50.88
2019-02-25T19:17:51.716Z,62.08
2019-02-25T19:20:21.303Z,57.80
2019-02-25T19:22:50.886Z,59.87
2019-02-25T19:25:22.932Z,55.67
2019-02-25T19:27:52.699Z,70.35
2019-02-25T19:30:24.799Z,72.25
2019-02-25T19:32:54.431Z,90.12
2019-02-25T19:35:26.324Z,78.12
2019-02-25T19:37:55.190Z,76.93
2019-02-25T19:40:24.967Z,77.03
2019-02-25T19:42:56.765Z,59.58
2019-02-25T19:45:26.055Z,56.67
2019-02-25T19:47:57.872Z,57.83
2019-02-25T19:50:27.660Z,55.52
2019-02-25T19:53:00.402Z,51.85
2019-02-25T19:55:29.089Z,51.73
2019-02-25T19:57:59.042Z,55.92
2019-02-25T20:00:30.576Z,55.95
2019-02-25T20:03:05.637Z,58.98
2019-02-25T20:05:33.304Z,60.05
2019-02-25T20:08:03.060Z,55.55
2019-02-25T20:10:32.948Z,54.53
2019-02-25T20:13:05.329Z,57.60
2019-02-25T20:15:37.626Z,57.75
2019-02-25T20:18:04.883Z,62.60
2019-02-25T20:20:36.445Z,56.25
2019-02-25T20:23:06.819Z,54.23
2019-02-25T20:25:37.354Z,52.73
2019-02-25T20:28:06.902Z,56.75
2019-02-25T20:30:36.480Z,60.38
2019-02-25T20:33:06.954Z,61.35
2019-02-25T20:35:37.225Z,66.60
2019-02-25T20:38:06.814Z,66.05
2019-02-25T20:40:36.368Z,68.15
2019-02-25T20:43:05.926Z,68.40
2019-02-25T20:45:35.836Z,67.87
2019-02-25T20:48:05.645Z,67.00
2019-02-25T20:50:35.622Z,71.47
2019-02-25T20:53:06.450Z,71.50
2019-02-25T20:55:36.444Z,72.60
2019-02-25T20:58:07.423Z,73.62
2019-02-25T21:00:39.189Z,71.75
2019-02-25T21:03:12.008Z,68.92
2019-02-25T21:06:02.795Z,69.37
2019-02-25T21:08:35.194Z,72.03
2019-02-25T21:11:08.737Z,80.85
2019-02-25T21:13:35.955Z,89.55
2019-02-25T21:16:08.218Z,88.80
2019-02-25T21:18:37.878Z,81.50
2019-02-25T21:21:10.114Z,76.70
2019-02-25T21:23:39.070Z,70.75
2019-02-25T21:26:09.792Z,67.50
2019-02-25T21:28:42.639Z,72.42
2019-02-25T21:31:13.924Z,66.50
2019-02-25T21:33:45.014Z,67.33
2019-02-25T21:36:22.069Z,64.75
2019-02-25T21:38:53.400Z,65.25
2019-02-25T21:41:24.016Z,65.92
2019-02-25T21:43:54.152Z,65.78
2019-02-25T21:46:28.507Z,63.20
2019-02-25T21:49:00.995Z,62.00
2019-02-25T21:51:34.359Z,65.92
2019-02-25T21:59:41.836Z,60.88
2019-02-25T22:02:11.512Z,62.25
2019-02-25T22:04:43.079Z,64.40
2019-02-25T22:07:14.553Z,59.15
2019-02-25T22:09:44.230Z,61.75
2019-02-25T22:12:14.761Z,63.02
2019-02-25T22:14:46.037Z,65.50
2019-02-25T22:17:17.397Z,65.75
2019-02-25T22:19:48.045Z,68.87
2019-02-25T22:22:21.738Z,71.82
2019-02-25T22:24:49.072Z,71.72
2019-02-25T22:27:20.643Z,70.70
2019-02-25T22:29:50.833Z,69.65
2019-02-25T22:32:21.002Z,72.53
2019-02-25T22:34:50.578Z,67.78
2019-02-25T22:37:22.742Z,71.22
2019-02-25T22:39:52.595Z,67.40
2019-02-25T22:42:22.635Z,71.15
2019-02-25T22:44:54.037Z,68.80
2019-02-25T22:47:23.743Z,66.37
2019-02-25T22:49:53.283Z,70.62
2019-02-25T22:52:26.416Z,69.75
2019-02-25T22:54:55.687Z,65.87
2019-02-25T22:57:25.739Z,63.48
2019-02-25T22:59:56.435Z,68.07
2019-02-25T23:02:28.063Z,64.03
2019-02-25T23:04:57.190Z,65.25
2019-02-25T23:07:26.791Z,63.90
2019-02-25T23:09:56.338Z,63.73
2019-02-25T23:12:27.235Z,72.72
2019-02-25T23:14:58.918Z,66.62
2019-02-25T23:17:33.083Z,64.75
2019-02-25T23:20:02.636Z,64.92
2019-02-25T23:22:34.921Z,65.70
2019-02-25T23:25:06.903Z,62.17
2019-02-25T23:27:38.415Z,60.83
2019-02-25T23:30:10.214Z,65.05
2019-02-25T23:32:39.799Z,62.98
2019-02-25T23:35:11.779Z,66.28
2019-02-25T23:37:40.557Z,60.35
2019-02-25T23:40:14.486Z,66.33
2019-02-25T23:42:46.555Z,60.85
2019-02-25T23:45:17.921Z,54.30
2019-02-25T23:47:47.350Z,60.03
2019-02-25T23:50:16.907Z,58.63
2019-02-25T23:52:46.459Z,57.70
2019-02-25T23:55:18.645Z,59.60
2019-02-25T23:57:47.173Z,57.35
